Time;durP1;ratioP1;P1;durP2;ratioP2;P2;SDS_P1;SDS_P2;PMS_P1;PMS_P2;Temp;Humidity;BMP_temperature;BMP_pressure;BME280_temperature;BME280_humidity;BME280_pressure;Samples;Min_cycle;Max_cycle;Signal;HPM_P1;HPM_P2
2022/10/03 05:00:47;;;;;;;29.13;7.30;;;12.60;97.20;;;;;;1741919;28;20183;-71
2022/10/03 05:01:46;;;;;;;14.40;7.40;;;12.60;97.20;;;;;;1742034;28;20200;-71
2022/10/03 05:02:48;;;;;;;19.85;7.60;;;12.60;97.20;;;;;;1742017;28;20234;-71
2022/10/03 05:03:46;;;;;;;18.83;7.50;;;12.50;97.20;;;;;;1742111;28;20199;-71
2022/10/03 05:04:48;;;;;;;8.55;7.75;;;12.50;97.20;;;;;;1742099;28;20203;-71
2022/10/03 05:05:50;;;;;;;20.75;7.35;;;12.50;97.20;;;;;;1741869;28;20735;-71
2022/10/03 05:06:47;;;;;;;12.52;8.32;;;12.50;97.20;;;;;;1741961;28;20203;-70
2022/10/03 05:07:49;;;;;;;9.40;7.63;;;12.50;97.20;;;;;;1742048;28;20226;-71
2022/10/03 05:08:49;;;;;;;13.32;7.75;;;12.50;97.20;;;;;;1742118;28;20254;-71
2022/10/03 05:09:49;;;;;;;15.80;9.02;;;12.50;97.20;;;;;;1742071;28;20555;-71
2022/10/03 05:10:52;;;;;;;14.57;7.40;;;12.50;97.20;;;;;;1742025;28;20241;-71
2022/10/03 05:11:59;;;;;;;9.32;7.35;;;12.50;97.20;;;;;;1741745;28;20700;-71
2022/10/03 05:12:56;;;;;;;15.43;8.10;;;12.50;97.20;;;;;;1741813;28;20238;-70
2022/10/03 05:14:02;;;;;;;8.93;7.72;;;12.50;97.20;;;;;;1741817;28;20199;-71
2022/10/03 05:15:10;;;;;;;10.63;8.20;;;12.50;97.20;;;;;;1741977;28;20203;-70
2022/10/03 05:16:14;;;;;;;10.35;8.32;;;12.50;97.20;;;;;;1742019;28;20223;-70
2022/10/03 05:17:13;;;;;;;28.88;8.18;;;12.50;97.20;;;;;;1741925;28;20227;-70
2022/10/03 05:18:14;;;;;;;14.40;8.98;;;12.50;97.20;;;;;;1742064;28;20198;-70
2022/10/03 05:19:27;;;;;;;13.25;9.27;;;12.50;97.20;;;;;;1741935;28;20642;-70
2022/10/03 05:20:37;;;;;;;12.80;8.57;;;12.50;97.20;;;;;;1741590;28;20269;-70
2022/10/03 05:21:36;;;;;;;9.85;8.80;;;12.50;97.20;;;;;;1741917;28;20199;-70
2022/10/03 05:22:44;;;;;;;13.82;9.05;;;12.50;97.20;;;;;;1741922;28;20254;-70
2022/10/03 05:23:45;;;;;;;10.40;9.05;;;12.50;97.20;;;;;;1741931;28;20199;-70
2022/10/03 05:24:44;;;;;;;10.00;8.98;;;12.50;97.20;;;;;;1741935;28;20227;-70
2022/10/03 05:25:45;;;;;;;10.57;8.63;;;12.50;97.20;;;;;;1741685;28;20195;-70
2022/10/03 05:26:44;;;;;;;9.20;7.90;;;12.50;97.20;;;;;;1741966;28;20198;-71
2022/10/03 05:27:44;;;;;;;13.38;9.60;;;12.50;97.20;;;;;;1741943;28;20203;-70
2022/10/03 05:28:42;;;;;;;10.40;8.27;;;12.50;97.20;;;;;;1741965;28;20191;-70
2022/10/03 05:29:39;;;;;;;10.98;8.85;;;12.50;97.20;;;;;;1741949;28;20773;-73
2022/10/03 05:30:41;;;;;;;10.82;9.73;;;12.50;97.20;;;;;;1741647;28;20621;-73
2022/10/03 05:31:49;;;;;;;11.82;8.70;;;12.50;97.20;;;;;;1741883;28;20211;-73
2022/10/03 05:32:46;;;;;;;11.82;8.35;;;12.50;97.20;;;;;;1741927;28;20295;-73
2022/10/03 05:33:43;;;;;;;9.77;8.65;;;12.50;97.20;;;;;;1741907;28;20203;-73
2022/10/03 05:34:54;;;;;;;10.60;8.98;;;12.50;97.20;;;;;;1741465;28;20730;-73
2022/10/03 05:35:58;;;;;;;9.13;7.97;;;12.60;97.20;;;;;;1742012;28;20230;-73
2022/10/03 05:37:11;;;;;;;9.50;8.50;;;12.60;97.20;;;;;;1741950;28;20514;-73
2022/10/03 05:38:20;;;;;;;10.35;8.77;;;12.60;97.20;;;;;;1741862;28;20207;-73
2022/10/03 05:39:37;;;;;;;9.82;8.82;;;12.60;97.20;;;;;;1741956;28;20203;-73
2022/10/03 05:40:30;;;;;;;11.10;9.00;;;12.60;97.20;;;;;;1734645;28;20220;-73
2022/10/03 05:41:27;;;;;;;9.73;8.73;;;12.60;97.20;;;;;;1734974;28;20224;-73
2022/10/03 05:42:38;;;;;;;14.00;9.85;;;12.60;97.20;;;;;;1734984;28;20206;-73
2022/10/03 05:43:46;;;;;;;11.98;9.13;;;12.60;97.20;;;;;;1734951;28;20220;-73
2022/10/03 05:44:42;;;;;;;9.63;8.73;;;12.60;97.20;;;;;;1735013;28;20211;-73
2022/10/03 05:45:47;;;;;;;9.85;8.82;;;12.60;97.20;;;;;;1735029;28;20662;-73
2022/10/03 05:46:54;;;;;;;10.75;9.55;;;12.70;97.20;;;;;;1735072;28;20204;-73
2022/10/03 05:47:51;;;;;;;10.73;9.15;;;12.70;97.20;;;;;;1735023;28;20631;-74
2022/10/03 05:48:48;;;;;;;10.65;9.55;;;12.70;97.20;;;;;;1734959;28;20204;-73
2022/10/03 05:50:04;;;;;;;10.55;9.45;;;12.70;97.20;;;;;;1734946;28;20191;-73
2022/10/03 05:51:38;;;;;;;10.45;9.18;;;12.70;97.20;;;;;;1734827;28;20211;-71
2022/10/03 05:52:49;;;;;;;11.70;10.02;;;12.70;97.20;;;;;;1713775;28;20202;-70
2022/10/03 05:54:28;;;;;;;10.45;9.40;;;12.70;97.20;;;;;;1737255;28;20196;-70
2022/10/03 05:55:33;;;;;;;11.20;9.82;;;12.70;97.20;;;;;;1741718;28;20203;-73
2022/10/03 05:56:40;;;;;;;11.18;10.18;;;12.70;97.20;;;;;;1741886;28;20212;-73
2022/10/03 05:57:45;;;;;;;11.40;9.95;;;12.70;97.20;;;;;;1741765;28;20207;-73
2022/10/03 05:59:11;;;;;;;14.35;9.55;;;12.80;97.20;;;;;;1741750;28;20226;-73
2022/10/03 06:00:09;;;;;;;10.52;9.43;;;12.80;97.20;;;;;;1741424;28;20231;-73
2022/10/03 06:01:35;;;;;;;12.32;10.63;;;12.80;97.20;;;;;;1741608;28;20200;-71
2022/10/03 06:02:52;;;;;;;11.70;10.50;;;12.80;97.20;;;;;;1741804;28;20203;-71
2022/10/03 06:04:02;;;;;;;13.85;9.80;;;12.80;97.20;;;;;;1741602;28;20297;-71
2022/10/03 06:05:10;;;;;;;15.70;10.85;;;12.80;97.20;;;;;;1741747;28;20226;-71
2022/10/03 06:06:12;;;;;;;12.40;11.10;;;12.80;97.20;;;;;;1741755;28;20199;-71
2022/10/03 06:07:17;;;;;;;11.75;10.23;;;12.80;97.20;;;;;;1741757;28;20657;-71
2022/10/03 06:08:38;;;;;;;12.48;10.93;;;12.90;97.20;;;;;;1741538;28;20215;-71
2022/10/03 06:10:04;;;;;;;12.82;10.75;;;12.80;97.20;;;;;;1729793;28;20206;-71
2022/10/03 06:11:06;;;;;;;12.23;10.57;;;12.90;97.20;;;;;;1741653;28;20587;-71
2022/10/03 06:12:13;;;;;;;14.20;11.38;;;12.90;97.20;;;;;;1741686;28;20203;-71
2022/10/03 06:13:13;;;;;;;12.65;10.18;;;12.80;97.20;;;;;;1741676;28;20276;-71
2022/10/03 06:14:33;;;;;;;13.32;11.70;;;12.90;97.20;;;;;;1741703;28;20237;-71
2022/10/03 06:15:49;;;;;;;12.95;11.60;;;12.90;97.20;;;;;;1741587;28;20582;-71
2022/10/03 06:16:53;;;;;;;11.75;10.25;;;12.90;97.20;;;;;;1741574;28;20223;-71
2022/10/03 06:17:56;;;;;;;13.25;11.80;;;12.90;97.20;;;;;;1741658;28;20207;-71
2022/10/03 06:19:09;;;;;;;16.35;12.30;;;12.90;97.20;;;;;;1741668;28;20207;-71
2022/10/03 06:20:21;;;;;;;16.23;11.75;;;12.90;97.20;;;;;;1741382;28;20211;-71
2022/10/03 06:21:31;;;;;;;13.18;11.88;;;12.90;97.20;;;;;;1741483;28;20206;-71
2022/10/03 06:22:59;;;;;;;15.25;11.88;;;12.90;97.20;;;;;;1741408;28;20195;-70
2022/10/03 06:24:29;;;;;;;19.75;12.60;;;12.90;97.20;;;;;;1722711;28;20240;-71
2022/10/03 06:26:09;;;;;;;13.73;10.48;;;12.90;97.20;;;;;;1709978;28;20210;-71
2022/10/03 06:27:42;;;;;;;13.25;11.88;;;12.90;97.20;;;;;;1741569;28;20677;-71
2022/10/03 06:29:17;;;;;;;13.05;11.60;;;12.90;97.20;;;;;;1741543;28;20199;-71
2022/10/03 06:30:18;;;;;;;14.55;11.57;;;12.90;97.20;;;;;;1741223;28;20227;-73
2022/10/03 06:31:53;;;;;;;12.85;11.50;;;12.90;97.20;;;;;;1741523;28;20205;-73
2022/10/03 06:33:39;;;;;;;15.98;12.15;;;13.00;97.20;;;;;;1741648;28;20207;-73
2022/10/03 06:34:59;;;;;;;14.13;12.57;;;13.00;97.20;;;;;;1741599;28;20639;-73
2022/10/03 06:36:26;;;;;;;16.85;13.20;;;13.00;97.20;;;;;;1741386;28;20608;-71
2022/10/03 06:38:09;;;;;;;16.73;12.68;;;13.00;97.20;;;;;;1720166;28;20212;-71
2022/10/03 06:39:40;;;;;;;19.65;12.00;;;13.00;97.20;;;;;;1741507;28;20214;-73
2022/10/03 06:41:14;;;;;;;15.18;13.10;;;13.00;97.20;;;;;;1741216;28;20238;-73
2022/10/03 06:42:31;;;;;;;21.90;14.27;;;13.00;97.20;;;;;;1741473;28;20199;-73
2022/10/03 06:43:52;;;;;;;15.07;12.50;;;13.00;97.20;;;;;;1741427;28;20213;-73
2022/10/03 06:45:25;;;;;;;16.33;12.73;;;13.00;97.20;;;;;;1741531;28;20609;-73
2022/10/03 06:47:12;;;;;;;20.00;13.00;;;13.00;97.20;;;;;;1719399;28;20225;-73
2022/10/03 06:48:23;;;;;;;17.73;12.98;;;13.00;97.20;;;;;;1706817;29;20583;-71
2022/10/03 06:49:32;;;;;;;17.92;12.93;;;13.00;97.20;;;;;;1706906;29;20823;-71
2022/10/03 06:50:51;;;;;;;15.27;12.40;;;13.00;97.20;;;;;;1707171;28;20223;-70
2022/10/03 06:52:09;;;;;;;17.48;13.10;;;13.00;97.20;;;;;;1713356;28;20216;-71
2022/10/03 06:53:23;;;;;;;18.92;12.60;;;13.10;97.20;;;;;;1734646;28;20203;-72
2022/10/03 06:55:04;;;;;;;17.70;13.05;;;13.10;97.20;;;;;;1734542;28;20198;-73
2022/10/03 06:56:24;;;;;;;16.60;13.30;;;13.10;97.20;;;;;;1734636;28;20245;-73
2022/10/03 06:57:31;;;;;;;20.27;13.80;;;13.10;97.20;;;;;;1734493;28;20207;-73
2022/10/03 06:58:46;;;;;;;20.88;13.82;;;13.10;97.20;;;;;;1734561;28;20633;-73
2022/10/03 07:00:03;;;;;;;19.90;14.48;;;13.20;97.20;;;;;;1734486;28;20207;-73
2022/10/03 07:01:04;;;;;;;17.42;12.63;;;13.20;97.20;;;;;;1740905;28;20203;-74
2022/10/03 07:02:20;;;;;;;20.48;14.73;;;13.20;97.20;;;;;;1741384;28;20203;-73
2022/10/03 07:03:36;;;;;;;14.45;12.93;;;13.20;97.20;;;;;;1741330;28;20210;-73
2022/10/03 07:04:45;;;;;;;15.30;13.68;;;13.30;97.20;;;;;;1741453;28;20203;-73
2022/10/03 07:06:13;;;;;;;19.27;15.52;;;13.30;97.20;;;;;;1741224;28;20203;-73
2022/10/03 07:07:27;;;;;;;18.83;14.18;;;13.40;97.20;;;;;;1734129;28;20207;-71
2022/10/03 07:08:57;;;;;;;17.92;14.73;;;13.40;97.20;;;;;;1734312;28;20199;-71
2022/10/03 07:10:08;;;;;;;20.88;16.90;;;13.50;97.20;;;;;;1733766;28;20658;-71
2022/10/03 07:11:12;;;;;;;16.10;14.27;;;13.60;97.20;;;;;;1734747;28;20215;-71
2022/10/03 07:12:53;;;;;;;16.48;14.75;;;13.60;97.20;;;;;;1738102;28;20199;-73
2022/10/03 07:14:17;;;;;;;16.10;14.23;;;13.60;97.20;;;;;;1712220;28;20198;-73
2022/10/03 07:15:39;;;;;;;18.65;14.90;;;13.70;97.20;;;;;;1710849;28;20285;-73
2022/10/03 07:17:11;;;;;;;17.65;14.32;;;13.70;97.20;;;;;;1693312;29;20777;-73
2022/10/03 07:18:45;;;;;;;17.38;14.77;;;13.70;97.20;;;;;;1681437;29;20668;-73
2022/10/03 07:20:10;;;;;;;16.35;14.57;;;13.70;97.20;;;;;;1720715;28;20335;-73
2022/10/03 07:21:32;;;;;;;18.35;14.95;;;13.70;97.20;;;;;;1700000;28;20214;-71
2022/10/03 07:23:13;;;;;;;15.90;13.40;;;13.70;97.20;;;;;;1741101;28;20191;-71
2022/10/03 07:24:18;;;;;;;18.45;14.95;;;13.70;97.20;;;;;;1741160;28;20571;-71
2022/10/03 07:25:32;;;;;;;16.17;14.05;;;13.70;97.20;;;;;;1741102;28;20240;-71
2022/10/03 07:26:44;;;;;;;15.52;13.35;;;13.70;97.20;;;;;;1740649;28;20206;-71
2022/10/03 07:27:49;;;;;;;17.55;15.10;;;13.70;97.20;;;;;;1740721;28;20697;-71
2022/10/03 07:29:10;;;;;;;17.27;15.60;;;13.70;97.20;;;;;;1740630;28;20219;-73
2022/10/03 07:30:11;;;;;;;16.45;14.48;;;13.80;97.20;;;;;;1740472;28;20231;-73
2022/10/03 07:31:11;;;;;;;18.67;15.57;;;13.80;97.20;;;;;;1741016;28;20568;-73
2022/10/03 07:32:24;;;;;;;15.63;14.00;;;13.80;97.20;;;;;;1741092;28;20242;-72
2022/10/03 07:33:46;;;;;;;15.60;13.80;;;13.80;97.20;;;;;;1741117;28;20571;-71
2022/10/03 07:35:16;;;;;;;16.38;13.73;;;13.80;97.20;;;;;;1740963;28;20199;-71
2022/10/03 07:40:07;;;;;;;16.63;14.13;;;13.70;97.20;;;;;;1741021;28;20731;-71
2022/10/03 07:41:21;;;;;;;15.48;13.85;;;13.70;97.20;;;;;;1740839;28;20283;-71
2022/10/03 07:42:32;;;;;;;15.35;13.75;;;13.70;97.20;;;;;;1741001;28;20256;-71
2022/10/03 07:44:04;;;;;;;16.13;14.40;;;13.70;97.20;;;;;;1734030;28;20610;-71
2022/10/03 07:45:29;;;;;;;16.67;13.15;;;13.70;97.20;;;;;;1734103;28;20204;-75
2022/10/03 07:47:00;;;;;;;16.45;14.77;;;13.70;97.20;;;;;;1734035;28;20199;-74
2022/10/03 07:48:08;;;;;;;14.63;13.13;;;13.70;97.20;;;;;;1734137;28;20212;-75
2022/10/03 07:49:20;;;;;;;15.93;14.23;;;13.70;97.20;;;;;;1734189;28;20204;-74
2022/10/03 07:50:49;;;;;;;16.33;14.32;;;13.70;97.20;;;;;;1733573;28;20239;-74
2022/10/03 07:51:51;;;;;;;15.70;14.00;;;13.70;97.20;;;;;;1734026;28;20204;-74
2022/10/03 07:52:58;;;;;;;17.02;13.40;;;13.70;97.20;;;;;;1734283;28;20200;-73
2022/10/03 07:54:28;;;;;;;16.15;14.32;;;13.70;97.20;;;;;;1734154;28;20196;-73
2022/10/03 07:55:41;;;;;;;15.63;13.90;;;13.60;97.20;;;;;;1733996;28;20659;-75
2022/10/03 07:57:02;;;;;;;15.60;13.30;;;13.60;97.20;;;;;;1734296;28;20656;-76
2022/10/03 07:58:17;;;;;;;14.23;12.73;;;13.50;97.20;;;;;;1733847;28;20208;-76
2022/10/03 07:59:37;;;;;;;16.33;14.63;;;13.50;97.20;;;;;;1734026;28;20688;-74
2022/10/03 08:00:38;;;;;;;15.65;13.60;;;13.60;97.20;;;;;;1733917;28;20254;-74
2022/10/03 08:01:42;;;;;;;20.63;14.60;;;13.60;97.20;;;;;;1740621;28;20203;-74
2022/10/03 08:03:02;;;;;;;15.05;13.25;;;13.50;97.20;;;;;;1740647;28;20195;-74
2022/10/03 08:04:25;;;;;;;17.67;13.95;;;13.60;97.20;;;;;;1740813;28;20210;-74
2022/10/03 08:05:28;;;;;;;13.52;12.23;;;13.60;97.20;;;;;;1740887;28;20207;-74
2022/10/03 08:06:25;;;;;;;14.05;12.65;;;13.60;97.20;;;;;;1740752;28;20567;-74
2022/10/03 08:07:31;;;;;;;16.10;13.68;;;13.60;97.20;;;;;;1740621;28;20282;-74
2022/10/03 08:08:58;;;;;;;17.27;13.32;;;13.60;97.20;;;;;;1740899;28;20253;-76
2022/10/03 08:10:03;;;;;;;14.93;13.10;;;13.60;97.20;;;;;;1740325;28;20253;-76
2022/10/03 08:11:22;;;;;;;16.42;14.13;;;13.60;97.20;;;;;;1740562;28;20580;-74
2022/10/03 08:12:39;;;;;;;17.02;13.15;;;13.60;97.20;;;;;;1740856;28;20206;-73
2022/10/03 08:13:46;;;;;;;13.25;11.95;;;13.60;97.20;;;;;;1740829;28;20210;-74
2022/10/03 08:14:49;;;;;;;16.17;13.48;;;13.60;97.20;;;;;;1740795;28;20239;-75
2022/10/03 08:15:58;;;;;;;15.60;13.57;;;13.70;97.20;;;;;;1740711;28;20204;-74
2022/10/03 08:17:23;;;;;;;16.88;15.27;;;13.70;97.20;;;;;;1733793;28;20261;-74
2022/10/03 08:18:58;;;;;;;16.85;14.15;;;13.70;97.20;;;;;;1733910;28;20208;-74
2022/10/03 08:20:19;;;;;;;19.92;15.32;;;13.70;97.20;;;;;;1733488;28;20210;-74
2022/10/03 08:21:16;;;;;;;18.15;15.38;;;13.70;97.20;;;;;;1733853;28;20215;-74
2022/10/03 08:22:15;;;;;;;17.77;15.85;;;13.70;97.20;;;;;;1734005;28;20207;-74
2022/10/03 08:23:28;;;;;;;18.35;15.48;;;13.70;97.20;;;;;;1734037;28;20204;-75
2022/10/03 08:24:37;;;;;;;16.55;14.50;;;13.70;97.20;;;;;;1733816;28;20223;-75
2022/10/03 08:25:44;;;;;;;15.38;13.27;;;13.80;97.20;;;;;;1740206;28;20204;-75
2022/10/03 08:27:04;;;;;;;23.10;15.88;;;13.80;97.20;;;;;;1740713;28;20207;-75
2022/10/03 08:28:18;;;;;;;16.30;14.60;;;13.80;97.20;;;;;;1740779;28;20221;-75
2022/10/03 08:29:22;;;;;;;16.33;13.70;;;13.80;97.20;;;;;;1740875;28;20210;-75
2022/10/03 08:30:27;;;;;;;16.55;14.15;;;13.80;97.20;;;;;;1740131;28;20226;-75
2022/10/03 08:31:47;;;;;;;15.77;13.50;;;13.80;97.20;;;;;;1740587;28;20200;-75
2022/10/03 08:33:03;;;;;;;17.90;13.60;;;13.80;97.20;;;;;;1740642;28;20216;-74
2022/10/03 08:34:29;;;;;;;16.38;14.45;;;13.80;97.20;;;;;;1740722;28;20245;-75
2022/10/03 08:35:34;;;;;;;16.67;14.95;;;13.80;97.20;;;;;;1740675;28;20283;-74
2022/10/03 08:36:58;;;;;;;17.23;14.25;;;13.80;97.20;;;;;;1740815;28;20238;-75
2022/10/03 08:38:31;;;;;;;15.15;12.90;;;13.80;97.20;;;;;;1740805;28;20207;-75
2022/10/03 08:39:46;;;;;;;16.50;12.43;;;13.80;97.20;;;;;;1740379;28;20204;-75
2022/10/03 08:41:19;;;;;;;14.32;12.85;;;13.80;97.20;;;;;;1740728;28;20294;-75
2022/10/03 08:42:40;;;;;;;19.33;13.13;;;13.80;97.20;;;;;;1740807;28;20300;-75
2022/10/03 08:44:09;;;;;;;20.70;13.23;;;13.80;97.20;;;;;;1740777;28;20796;-75
2022/10/03 08:45:29;;;;;;;12.57;11.32;;;13.80;97.20;;;;;;1740713;28;20286;-75
2022/10/03 08:46:47;;;;;;;13.90;12.55;;;13.80;97.20;;;;;;1740688;28;20923;-75
2022/10/03 08:48:18;;;;;;;15.48;11.65;;;13.80;97.20;;;;;;1738217;28;20670;-75
2022/10/03 08:49:28;;;;;;;15.13;12.85;;;13.80;97.20;;;;;;1740875;28;20643;-75
2022/10/03 08:50:56;;;;;;;14.27;11.70;;;13.80;97.20;;;;;;1740060;28;20234;-75
2022/10/03 08:52:10;;;;;;;13.95;12.48;;;13.80;97.20;;;;;;1740563;28;20199;-75
2022/10/03 08:53:32;;;;;;;14.63;12.40;;;13.80;97.20;;;;;;1740456;28;20202;-75
2022/10/03 08:54:55;;;;;;;16.42;12.30;;;13.80;97.20;;;;;;1740706;28;20200;-75
2022/10/03 08:55:55;;;;;;;14.88;12.02;;;13.80;97.20;;;;;;1727776;28;20207;-74
2022/10/03 08:57:05;;;;;;;15.27;12.95;;;13.80;97.20;;;;;;1740485;28;20272;-74
2022/10/03 08:58:27;;;;;;;14.13;11.43;;;13.80;97.20;;;;;;1740663;28;20238;-74
2022/10/03 08:59:44;;;;;;;15.32;13.50;;;13.80;97.20;;;;;;1740742;28;20210;-75
2022/10/03 09:01:03;;;;;;;15.80;13.23;;;13.80;97.20;;;;;;1727684;28;21639;-75
2022/10/03 09:02:44;;;;;;;14.77;12.65;;;13.80;97.20;;;;;;1740423;28;20257;-75
2022/10/03 09:04:10;;;;;;;17.15;13.23;;;13.80;97.20;;;;;;1740519;28;20296;-75
2022/10/03 09:05:51;;;;;;;18.52;13.82;;;13.80;97.20;;;;;;1740618;28;20686;-75
2022/10/03 09:07:10;;;;;;;14.07;12.02;;;13.80;97.20;;;;;;1719290;28;20708;-76
2022/10/03 09:08:36;;;;;;;15.40;12.35;;;13.80;97.20;;;;;;1712128;28;20206;-76
2022/10/03 09:10:15;;;;;;;13.65;12.25;;;13.80;97.20;;;;;;1718991;28;20209;-75
2022/10/03 09:11:40;;;;;;;13.93;12.52;;;13.80;97.20;;;;;;1719548;28;20201;-75
2022/10/03 09:13:05;;;;;;;13.65;11.73;;;13.80;97.20;;;;;;1736037;28;20203;-75
2022/10/03 09:14:29;;;;;;;13.75;11.48;;;13.80;97.20;;;;;;1741466;28;20207;-74
2022/10/03 09:15:52;;;;;;;13.45;11.45;;;13.80;97.20;;;;;;1737461;28;20609;-73
2022/10/03 09:17:12;;;;;;;16.70;12.07;;;13.80;97.20;;;;;;1741041;28;20237;-75
2022/10/03 09:18:29;;;;;;;13.73;11.23;;;13.80;97.20;;;;;;1741750;28;20214;-73
2022/10/03 09:19:51;;;;;;;13.60;10.30;;;13.80;97.20;;;;;;1741581;28;20563;-73
2022/10/03 09:21:25;;;;;;;14.02;10.80;;;13.80;97.20;;;;;;1736433;28;20210;-74
2022/10/03 09:23:00;;;;;;;13.57;10.77;;;13.80;97.20;;;;;;1734888;28;20200;-73
2022/10/03 09:24:31;;;;;;;12.20;10.82;;;13.80;97.20;;;;;;1734672;28;20258;-74
2022/10/03 09:25:30;;;;;;;12.13;10.52;;;13.90;97.20;;;;;;1734398;28;20204;-73
2022/10/03 09:26:51;;;;;;;12.05;10.23;;;13.90;97.20;;;;;;1734704;28;20286;-74
2022/10/03 09:28:38;;;;;;;14.38;11.05;;;13.90;97.20;;;;;;1734760;28;20265;-72
2022/10/03 09:29:44;;;;;;;11.98;10.57;;;14.00;97.20;;;;;;1720230;28;20204;-76
2022/10/03 09:30:55;;;;;;;15.65;13.15;;;14.20;97.20;;;;;;1720021;28;20663;-72
2022/10/03 09:32:18;;;;;;;17.13;12.13;;;14.30;97.20;;;;;;1721096;28;20192;-73
2022/10/03 09:33:44;;;;;;;11.50;10.15;;;14.50;97.20;;;;;;1734470;28;20218;-71
2022/10/03 09:35:17;;;;;;;12.23;10.40;;;14.60;97.20;;;;;;1734646;28;20200;-74
2022/10/03 09:36:39;;;;;;;10.95;9.85;;;14.70;97.20;;;;;;1731107;28;20203;-74
2022/10/03 09:37:46;;;;;;;10.35;9.30;;;14.70;97.20;;;;;;1734671;28;20204;-74
2022/10/03 09:39:02;;;;;;;11.15;9.23;;;14.70;97.20;;;;;;1733905;28;20208;-71
2022/10/03 09:40:27;;;;;;;10.27;8.98;;;14.70;97.20;;;;;;1732849;28;20722;-71
2022/10/03 09:42:07;;;;;;;15.55;10.07;;;14.80;97.20;;;;;;1739673;28;20290;-73
2022/10/03 09:43:22;;;;;;;12.25;10.25;;;14.80;97.20;;;;;;1740143;28;20729;-71
2022/10/03 09:44:32;;;;;;;14.82;11.93;;;14.90;97.20;;;;;;1731815;28;20191;-72
2022/10/03 09:45:51;;;;;;;14.35;10.88;;;14.90;97.20;;;;;;1734587;28;20191;-73
2022/10/03 09:47:22;;;;;;;12.05;10.77;;;14.90;97.20;;;;;;1733793;28;20204;-71
2022/10/03 09:48:35;;;;;;;12.85;10.43;;;14.80;97.20;;;;;;1726242;28;20686;-71
2022/10/03 09:49:55;;;;;;;16.90;10.15;;;14.80;97.20;;;;;;1735283;28;20785;-71
2022/10/03 09:51:08;;;;;;;13.68;10.18;;;14.70;97.20;;;;;;1741416;28;20183;-71
2022/10/03 09:52:21;;;;;;;12.30;9.55;;;14.70;97.20;;;;;;1741360;28;20215;-71
2022/10/03 09:53:40;;;;;;;11.02;9.43;;;14.60;97.20;;;;;;1741203;28;20190;-71
2022/10/03 09:55:04;;;;;;;12.70;10.00;;;14.60;97.20;;;;;;1741012;28;20184;-72
2022/10/03 09:56:32;;;;;;;11.75;10.20;;;14.60;97.20;;;;;;1741022;28;20245;-72
2022/10/03 09:57:55;;;;;;;11.20;10.00;;;14.60;97.20;;;;;;1741248;28;20218;-72
2022/10/03 09:59:05;;;;;;;12.30;9.88;;;14.60;97.20;;;;;;1734765;28;20204;-73
2022/10/03 10:00:26;;;;;;;10.38;8.55;;;14.70;97.20;;;;;;1733707;28;20218;-71
2022/10/03 10:01:28;;;;;;;13.10;9.95;;;14.90;97.20;;;;;;1733846;28;20926;-73
2022/10/03 10:02:52;;;;;;;9.75;8.73;;;15.00;97.20;;;;;;1734140;28;20207;-73
2022/10/03 10:04:26;;;;;;;12.63;8.70;;;15.10;97.20;;;;;;1736651;28;20337;-73
2022/10/03 10:05:46;;;;;;;13.07;8.35;;;15.30;97.20;;;;;;1741319;28;20254;-73
2022/10/03 10:07:31;;;;;;;9.25;8.35;;;15.60;97.20;;;;;;1740551;28;20187;-72
2022/10/03 10:08:39;;;;;;;14.43;8.48;;;15.90;97.20;;;;;;1740876;28;20210;-73
2022/10/03 10:09:47;;;;;;;8.45;7.57;;;16.00;97.20;;;;;;1741158;28;20188;-73
2022/10/03 10:10:57;;;;;;;11.80;7.88;;;16.10;97.20;;;;;;1741322;28;20199;-73
2022/10/03 10:12:20;;;;;;;10.13;8.40;;;16.10;97.20;;;;;;1740991;28;20203;-72
2022/10/03 10:13:22;;;;;;;8.35;6.80;;;16.20;97.20;;;;;;1741061;28;20194;-72
2022/10/03 10:14:27;;;;;;;10.88;7.35;;;16.20;97.20;;;;;;1740959;28;20214;-76
2022/10/03 10:15:45;;;;;;;9.98;7.70;;;16.10;97.20;;;;;;1740876;28;20275;-75
2022/10/03 10:17:17;;;;;;;8.88;7.60;;;16.10;97.20;;;;;;1740957;28;20560;-73
2022/10/03 10:18:40;;;;;;;10.82;7.20;;;16.00;97.20;;;;;;1738299;28;20204;-73
2022/10/03 10:19:54;;;;;;;9.88;7.50;;;16.00;97.20;;;;;;1741278;28;20630;-76
2022/10/03 10:21:30;;;;;;;12.38;8.18;;;15.90;97.20;;;;;;1740819;28;20183;-76
2022/10/03 10:22:45;;;;;;;8.95;7.28;;;15.90;97.20;;;;;;1740925;28;20792;-75
2022/10/03 10:23:50;;;;;;;10.23;6.95;;;15.80;97.20;;;;;;1740940;28;20612;-75
2022/10/03 10:25:32;;;;;;;10.48;7.78;;;15.80;97.20;;;;;;1740876;28;20200;-74
2022/10/03 10:26:41;;;;;;;11.00;7.72;;;15.80;97.20;;;;;;1741016;28;20202;-76
2022/10/03 10:28:02;;;;;;;10.25;7.40;;;15.70;97.20;;;;;;1740707;28;20191;-74
2022/10/03 10:29:23;;;;;;;9.85;7.25;;;15.70;97.20;;;;;;1740874;28;20211;-74
2022/10/03 10:30:23;;;;;;;7.65;6.95;;;15.70;97.20;;;;;;1740345;28;20227;-73
2022/10/03 10:31:47;;;;;;;12.70;7.80;;;15.70;97.20;;;;;;1741050;28;20244;-74
2022/10/03 10:33:17;;;;;;;10.50;6.57;;;15.70;97.20;;;;;;1726184;28;20200;-76
2022/10/03 10:34:39;;;;;;;11.48;7.57;;;15.70;97.20;;;;;;1740755;28;20207;-71
2022/10/03 10:36:05;;;;;;;8.65;7.40;;;16.00;97.20;;;;;;1733759;28;20200;-72
2022/10/03 10:37:36;;;;;;;10.48;7.30;;;16.30;97.20;;;;;;1733831;28;20575;-71
2022/10/03 10:38:49;;;;;;;11.98;7.20;;;16.80;97.20;;;;;;1705303;28;20203;-72
2022/10/03 10:40:07;;;;;;;11.65;6.55;;;17.20;97.20;;;;;;1719467;28;20737;-71
2022/10/03 10:41:36;;;;;;;10.02;7.32;;;17.50;97.20;;;;;;1733834;28;20627;-71
2022/10/03 10:43:07;;;;;;;6.60;6.00;;;17.70;97.20;;;;;;1733768;28;20196;-72
2022/10/03 10:44:32;;;;;;;8.60;6.72;;;18.00;97.20;;;;;;1721971;28;20296;-71
2022/10/03 10:45:44;;;;;;;6.93;6.22;;;18.30;97.20;;;;;;1719453;28;20225;-73
2022/10/03 10:47:09;;;;;;;9.23;7.07;;;18.50;97.20;;;;;;1737326;28;20205;-73
2022/10/03 10:48:54;;;;;;;9.43;6.88;;;18.50;97.20;;;;;;1732972;28;20695;-72
2022/10/03 10:50:33;;;;;;;7.30;6.55;;;18.50;97.20;;;;;;1740796;28;20207;-73
2022/10/03 10:51:58;;;;;;;7.65;6.68;;;18.50;97.20;;;;;;1726553;28;20207;-71
2022/10/03 10:53:41;;;;;;;8.15;6.80;;;18.40;97.20;;;;;;1726397;28;20207;-72
2022/10/03 10:55:02;;;;;;;9.63;7.07;;;18.30;97.20;;;;;;1719134;28;20204;-72
2022/10/03 10:56:29;;;;;;;12.10;7.25;;;18.10;97.20;;;;;;1719345;28;20209;-72
2022/10/03 10:57:46;;;;;;;9.82;7.53;;;18.00;97.20;;;;;;1719127;28;20208;-73
2022/10/03 10:59:13;;;;;;;9.88;7.20;;;17.90;97.20;;;;;;1719643;28;20198;-72
2022/10/03 11:00:17;;;;;;;8.27;7.47;;;17.90;97.20;;;;;;1720905;28;20225;-72
2022/10/03 11:01:39;;;;;;;9.93;6.82;;;18.00;97.20;;;;;;1740574;28;20198;-74
2022/10/03 11:03:10;;;;;;;8.93;6.28;;;18.20;97.20;;;;;;1740437;28;20211;-73
2022/10/03 11:04:34;;;;;;;7.88;6.60;;;18.50;97.20;;;;;;1740908;28;20214;-74
2022/10/03 11:06:07;;;;;;;9.35;6.88;;;18.80;97.20;;;;;;1740236;28;20231;-74
2022/10/03 11:07:27;;;;;;;10.73;6.85;;;19.20;97.20;;;;;;1739733;28;20207;-74
2022/10/03 11:09:16;;;;;;;10.05;6.75;;;19.40;97.20;;;;;;1726044;28;20211;-74
2022/10/03 11:10:34;;;;;;;8.30;6.35;;;19.70;97.20;;;;;;1740072;28;20223;-74
2022/10/03 11:12:05;;;;;;;8.45;6.28;;;20.10;97.20;;;;;;1740416;28;20203;-74
2022/10/03 11:13:26;;;;;;;6.30;5.60;;;20.40;97.20;;;;;;1740660;28;20199;-74
2022/10/03 11:14:52;;;;;;;6.97;5.88;;;20.60;97.20;;;;;;1740886;28;20207;-74
2022/10/03 11:16:21;;;;;;;7.47;6.38;;;20.60;97.20;;;;;;1725492;28;20715;-72
2022/10/03 11:17:43;;;;;;;7.05;5.72;;;20.40;97.20;;;;;;1740177;28;20191;-75
2022/10/03 11:19:08;;;;;;;7.18;5.88;;;20.10;97.20;;;;;;1719486;28;20288;-74
2022/10/03 11:20:37;;;;;;;6.32;5.65;;;19.90;97.20;;;;;;1740332;28;20222;-74
2022/10/03 11:22:03;;;;;;;7.22;5.97;;;19.60;97.20;;;;;;1740866;28;20657;-74
2022/10/03 11:23:37;;;;;;;8.10;5.80;;;19.40;97.20;;;;;;1740703;28;20577;-73
2022/10/03 11:25:23;;;;;;;8.38;6.30;;;19.30;97.20;;;;;;1740665;28;20202;-73
2022/10/03 11:27:02;;;;;;;10.70;7.63;;;19.10;97.20;;;;;;1719389;28;20201;-73
2022/10/03 11:28:43;;;;;;;8.05;6.97;;;19.00;97.20;;;;;;1705974;29;20203;-73
2022/10/03 11:30:14;;;;;;;11.50;8.00;;;18.80;97.20;;;;;;1733671;28;20211;-73
2022/10/03 11:31:38;;;;;;;8.80;7.45;;;18.60;97.20;;;;;;1734417;28;20187;-73
2022/10/03 11:33:24;;;;;;;8.65;7.53;;;18.50;97.20;;;;;;1740371;28;20558;-73
2022/10/03 11:34:56;;;;;;;11.95;7.65;;;18.40;97.20;;;;;;1740058;28;20203;-74
2022/10/03 11:36:21;;;;;;;9.80;8.68;;;18.20;97.20;;;;;;1727729;28;20196;-73
2022/10/03 11:37:33;;;;;;;13.98;10.55;;;18.10;97.20;;;;;;1739437;28;20202;-74
2022/10/03 11:38:28;;;;;;;11.75;10.13;;;18.00;97.20;;;;;;1738034;28;20416;-74
2022/10/03 11:39:28;;;;;;;10.10;9.00;;;17.90;97.20;;;;;;1740249;28;20206;-75